createdAt,value
2017-12-13T00:02:03.066Z,-1.70
2017-12-13T00:04:31.081Z,-1.70
2017-12-13T00:06:58.649Z,-1.60
2017-12-13T00:09:26.158Z,-1.70
2017-12-13T00:11:53.668Z,-1.70
2017-12-13T00:14:21.755Z,-1.80
2017-12-13T00:16:49.279Z,-1.80
2017-12-13T00:19:17.581Z,-2.00
2017-12-13T00:21:45.120Z,-2.00
2017-12-13T00:24:12.624Z,-1.90
2017-12-13T00:26:40.144Z,-2.00
2017-12-13T00:29:07.686Z,-2.00
2017-12-13T00:31:35.247Z,-2.10
2017-12-13T00:34:02.735Z,-2.00
2017-12-13T00:36:30.307Z,-2.10
2017-12-13T00:38:58.331Z,-2.20
2017-12-13T00:41:25.879Z,-2.20
2017-12-13T00:43:53.445Z,-2.00
2017-12-13T00:46:21.135Z,-1.70
2017-12-13T00:48:48.648Z,-1.40
2017-12-13T00:51:16.254Z,-1.20
2017-12-13T00:53:44.063Z,-1.10
2017-12-13T00:56:12.165Z,-1.20
2017-12-13T00:58:39.727Z,-1.10
2017-12-13T01:01:07.996Z,-1.30
2017-12-13T01:03:35.499Z,-1.30
2017-12-13T01:06:03.050Z,-1.30
2017-12-13T01:08:30.563Z,-1.40
2017-12-13T01:10:58.071Z,-1.50
2017-12-13T01:13:25.725Z,-1.70
2017-12-13T01:15:53.248Z,-1.80
2017-12-13T01:18:21.284Z,-1.90
2017-12-13T01:20:54.009Z,-2.00
2017-12-13T01:23:22.315Z,-2.10
2017-12-13T01:25:50.344Z,-2.10
2017-12-13T01:28:18.263Z,-2.20
2017-12-13T01:30:45.793Z,-2.30
2017-12-13T01:33:13.356Z,-2.40
2017-12-13T01:35:53.444Z,-2.60
2017-12-13T01:38:20.956Z,-2.60
2017-12-13T01:40:48.463Z,-2.60
2017-12-13T01:43:16.011Z,-2.60
2017-12-13T01:45:43.526Z,-2.60
2017-12-13T01:48:11.023Z,-2.70
2017-12-13T01:50:38.551Z,-2.80
2017-12-13T01:53:06.074Z,-2.90
2017-12-13T01:55:33.635Z,-3.00
2017-12-13T01:58:01.147Z,-3.00
2017-12-13T02:00:28.646Z,-3.00
2017-12-13T02:02:56.938Z,-3.00
2017-12-13T02:05:24.863Z,-3.00
2017-12-13T02:07:52.365Z,-3.00
2017-12-13T02:10:19.899Z,-3.10
2017-12-13T02:12:47.415Z,-3.10
2017-12-13T02:15:14.927Z,-3.00
2017-12-13T02:17:42.509Z,-3.10
2017-12-13T02:20:10.020Z,-3.10
2017-12-13T02:22:37.526Z,-3.20
2017-12-13T02:25:05.184Z,-3.20
2017-12-13T02:27:32.687Z,-3.20
2017-12-13T02:30:00.582Z,-3.30
2017-12-13T02:32:28.819Z,-3.30
2017-12-13T02:34:56.338Z,-3.20
2017-12-13T02:37:24.579Z,-3.20
2017-12-13T02:40:03.732Z,-3.20
2017-12-13T02:42:31.247Z,-3.20
2017-12-13T02:44:58.746Z,-3.20
2017-12-13T02:47:26.308Z,-3.20
2017-12-13T02:49:53.826Z,-2.90
2017-12-13T02:52:22.102Z,-2.30
2017-12-13T02:54:50.443Z,-2.20
2017-12-13T02:57:20.199Z,-2.10
2017-12-13T02:59:47.734Z,-2.10
2017-12-13T03:02:16.068Z,-2.00
2017-12-13T03:04:43.575Z,-2.00
2017-12-13T03:07:11.083Z,-2.10
2017-12-13T03:09:38.650Z,-2.20
2017-12-13T03:12:06.154Z,-2.50
2017-12-13T03:14:33.715Z,-2.60
2017-12-13T03:17:01.929Z,-2.70
2017-12-13T03:19:29.885Z,-2.80
2017-12-13T03:21:58.167Z,-2.90
2017-12-13T03:24:25.973Z,-2.90
2017-12-13T03:26:53.823Z,-3.00
2017-12-13T03:29:21.327Z,-3.10
2017-12-13T03:31:49.630Z,-3.20
2017-12-13T03:34:17.927Z,-3.20
2017-12-13T03:36:46.199Z,-3.20
2017-12-13T03:39:14.019Z,-3.20
2017-12-13T03:41:41.755Z,-3.20
2017-12-13T03:44:09.258Z,-3.20
2017-12-13T03:46:37.078Z,-3.20
2017-12-13T03:49:04.621Z,-3.20
2017-12-13T03:51:32.126Z,-3.20
2017-12-13T03:53:59.673Z,-3.20
2017-12-13T03:56:28.138Z,-3.20
2017-12-13T03:58:55.638Z,-3.20
2017-12-13T04:01:23.973Z,-3.20
2017-12-13T04:03:51.470Z,-3.10
2017-12-13T04:06:19.261Z,-3.20
2017-12-13T04:08:46.830Z,-3.20
2017-12-13T04:11:14.974Z,-3.30
2017-12-13T04:13:42.483Z,-3.40
2017-12-13T04:16:10.095Z,-3.40
2017-12-13T04:18:37.581Z,-3.40
2017-12-13T04:21:05.082Z,-3.50
2017-12-13T04:23:33.409Z,-3.50
2017-12-13T04:26:01.359Z,-3.50
2017-12-13T04:28:28.866Z,-3.50
2017-12-13T04:33:31.124Z,-3.50
2017-12-13T04:35:58.703Z,-3.50
2017-12-13T04:38:26.626Z,-3.50
2017-12-13T04:40:54.211Z,-3.40
2017-12-13T04:43:21.768Z,-3.50
2017-12-13T04:45:49.274Z,-3.40
2017-12-13T04:48:16.797Z,-3.40
2017-12-13T04:50:44.365Z,-3.50
2017-12-13T04:53:11.874Z,-3.50
2017-12-13T04:55:39.869Z,-3.50
2017-12-13T04:58:07.759Z,-3.50
2017-12-13T05:00:35.268Z,-3.50
2017-12-13T05:03:03.547Z,-3.50
2017-12-13T05:05:31.891Z,-3.50
2017-12-13T05:08:00.902Z,-3.60
2017-12-13T05:10:29.173Z,-3.60
2017-12-13T05:12:57.022Z,-3.70
2017-12-13T05:15:24.593Z,-3.60
2017-12-13T05:17:52.064Z,-3.60
2017-12-13T05:20:19.767Z,-3.60
2017-12-13T05:22:47.310Z,-3.60
2017-12-13T05:25:14.828Z,-3.70
2017-12-13T05:27:42.386Z,-3.70
2017-12-13T05:30:10.000Z,-3.80
2017-12-13T05:32:37.808Z,-3.90
2017-12-13T05:35:05.354Z,-3.90
2017-12-13T05:37:32.905Z,-3.90
2017-12-13T05:40:01.178Z,-3.90
2017-12-13T05:42:28.732Z,-3.90
2017-12-13T05:44:56.251Z,-3.90
2017-12-13T05:47:23.774Z,-3.70
2017-12-13T05:49:51.396Z,-3.60
2017-12-13T05:52:18.903Z,-3.70
2017-12-13T05:54:46.838Z,-3.80
2017-12-13T05:57:15.182Z,-3.70
2017-12-13T05:59:43.588Z,-3.80
2017-12-13T06:02:11.169Z,-3.80
2017-12-13T06:04:38.979Z,-3.90
2017-12-13T06:07:08.255Z,-4.00
2017-12-13T06:09:36.707Z,-4.00
2017-12-13T06:12:04.918Z,-4.00
2017-12-13T06:14:33.247Z,-4.00
2017-12-13T06:17:01.276Z,-3.90
2017-12-13T06:19:28.851Z,-3.90
2017-12-13T06:21:56.350Z,-3.80
2017-12-13T06:24:25.262Z,-3.80
2017-12-13T06:26:53.815Z,-3.90
2017-12-13T06:29:21.353Z,-3.90
2017-12-13T06:31:49.079Z,-4.00
2017-12-13T06:34:17.067Z,-4.00
2017-12-13T06:36:44.579Z,-4.00
2017-12-13T06:39:12.082Z,-4.00
2017-12-13T06:41:40.439Z,-4.00
2017-12-13T06:44:09.303Z,-3.90
2017-12-13T06:46:38.522Z,-3.90
2017-12-13T06:49:06.472Z,-3.90
2017-12-13T06:51:34.217Z,-4.00
2017-12-13T06:54:02.017Z,-3.90
2017-12-13T06:56:30.640Z,-3.90
2017-12-13T06:58:58.251Z,-3.90
2017-12-13T07:01:26.330Z,-3.90
2017-12-13T07:03:54.124Z,-4.00
2017-12-13T07:06:21.672Z,-4.00
2017-12-13T07:08:49.262Z,-4.00
2017-12-13T07:11:17.877Z,-3.90
2017-12-13T07:13:46.155Z,-3.90
2017-12-13T07:16:13.889Z,-3.90
2017-12-13T07:18:42.734Z,-3.90
2017-12-13T07:21:10.266Z,-3.90
2017-12-13T07:23:37.779Z,-3.90
2017-12-13T07:26:05.339Z,-3.80
2017-12-13T07:28:33.619Z,-3.70
2017-12-13T07:31:01.130Z,-3.80
2017-12-13T07:33:28.680Z,-3.70
2017-12-13T07:35:56.694Z,-3.60
2017-12-13T07:38:24.518Z,-3.60
2017-12-13T07:40:52.838Z,-3.50
2017-12-13T07:43:20.411Z,-3.50
2017-12-13T07:45:48.743Z,-3.50
2017-12-13T07:48:16.289Z,-3.40
2017-12-13T07:50:43.807Z,-3.30
2017-12-13T07:53:12.024Z,-3.30
2017-12-13T07:55:39.898Z,-3.20
2017-12-13T07:58:07.531Z,-3.20
2017-12-13T08:00:36.326Z,-3.20
2017-12-13T08:03:03.840Z,-3.10
2017-12-13T08:05:31.639Z,-3.10
2017-12-13T08:08:00.798Z,-3.00
2017-12-13T08:10:28.720Z,-3.00
2017-12-13T08:12:56.736Z,-2.90
2017-12-13T08:15:24.485Z,-2.80
2017-12-13T08:17:53.028Z,-2.60
2017-12-13T08:20:20.627Z,-2.60
2017-12-13T08:22:48.140Z,-2.50
2017-12-13T08:25:16.039Z,-2.30
2017-12-13T08:27:44.653Z,-2.30
2017-12-13T08:30:12.950Z,-2.10
2017-12-13T08:32:40.495Z,-2.00
2017-12-13T08:35:08.195Z,-1.90
2017-12-13T08:37:35.722Z,-1.90
2017-12-13T08:40:03.226Z,-1.90
2017-12-13T08:42:31.325Z,-1.70
2017-12-13T08:44:58.835Z,-1.70
2017-12-13T08:47:26.334Z,-1.70
2017-12-13T08:49:53.903Z,-1.50
2017-12-13T08:52:21.600Z,-1.40
2017-12-13T08:54:49.924Z,-1.30
2017-12-13T08:57:19.032Z,-1.20
2017-12-13T08:59:47.298Z,-1.10
2017-12-13T09:02:14.847Z,-0.90
2017-12-13T09:04:43.792Z,-0.90
2017-12-13T09:07:11.342Z,-0.80
2017-12-13T09:09:38.859Z,-0.70
2017-12-13T09:12:07.911Z,-0.60
2017-12-13T09:14:35.492Z,-0.50
2017-12-13T09:17:03.270Z,-0.40
2017-12-13T09:19:30.867Z,-0.30
2017-12-13T09:21:58.390Z,-0.20
2017-12-13T09:24:25.992Z,-0.20
2017-12-13T09:26:53.559Z,-0.10
2017-12-13T09:29:21.081Z,-0.10
2017-12-13T09:31:48.580Z,0.00
2017-12-13T09:34:16.147Z,0.10
2017-12-13T09:36:43.763Z,0.20
2017-12-13T09:39:11.271Z,0.40
2017-12-13T09:41:38.980Z,0.60
2017-12-13T09:44:06.655Z,0.70
2017-12-13T09:46:34.155Z,0.70
2017-12-13T09:49:01.735Z,0.80
2017-12-13T09:51:29.247Z,0.80
2017-12-13T09:53:56.763Z,0.90
2017-12-13T09:56:24.327Z,1.00
2017-12-13T09:58:52.009Z,1.00
2017-12-13T10:01:19.527Z,1.00
2017-12-13T10:03:47.097Z,1.20
2017-12-13T10:06:14.619Z,1.30
2017-12-13T10:08:42.707Z,1.50
2017-12-13T10:11:11.139Z,1.80
2017-12-13T10:13:38.654Z,1.70
2017-12-13T10:16:06.167Z,1.90
2017-12-13T10:18:33.763Z,1.90
2017-12-13T10:21:02.087Z,2.00
2017-12-13T10:23:29.603Z,2.00
2017-12-13T10:25:57.171Z,2.20
2017-12-13T10:28:24.771Z,2.30
2017-12-13T10:30:52.283Z,2.30
2017-12-13T10:33:20.155Z,2.50
2017-12-13T10:35:48.423Z,2.80
2017-12-13T10:38:16.694Z,2.90
2017-12-13T10:40:44.251Z,2.90
2017-12-13T10:43:15.586Z,3.30
2017-12-13T10:45:43.101Z,3.20
2017-12-13T10:48:10.751Z,3.40
2017-12-13T10:50:38.476Z,3.50
2017-12-13T10:53:05.975Z,3.50
2017-12-13T10:55:33.523Z,3.60
2017-12-13T10:58:01.019Z,3.70
2017-12-13T11:00:28.515Z,3.70
2017-12-13T11:02:56.067Z,3.80
2017-12-13T11:05:23.966Z,3.90
2017-12-13T11:07:51.467Z,4.10
2017-12-13T11:10:19.058Z,4.10
2017-12-13T11:12:46.559Z,4.10
2017-12-13T11:15:14.062Z,4.10
2017-12-13T11:17:41.615Z,4.20
2017-12-13T11:20:09.287Z,4.20
2017-12-13T11:22:37.567Z,4.20
2017-12-13T11:25:05.078Z,4.10
2017-12-13T11:27:32.578Z,4.20
2017-12-13T11:30:00.754Z,4.30
2017-12-13T11:32:28.250Z,4.40
2017-12-13T11:34:57.102Z,4.50
2017-12-13T11:37:24.674Z,4.50
2017-12-13T11:39:52.173Z,4.60
2017-12-13T11:42:19.667Z,4.60
2017-12-13T11:44:47.222Z,4.80
2017-12-13T11:47:14.719Z,4.80
2017-12-13T11:49:42.982Z,4.90
2017-12-13T11:52:10.539Z,4.90
2017-12-13T11:54:38.824Z,5.00
2017-12-13T11:57:06.343Z,5.10
2017-12-13T11:59:33.882Z,5.10
2017-12-13T12:02:01.375Z,5.20
2017-12-13T12:04:28.870Z,5.30
2017-12-13T12:06:56.427Z,5.50
2017-12-13T12:09:24.704Z,5.80
2017-12-13T12:11:52.208Z,5.80
2017-12-13T12:14:19.761Z,5.90
2017-12-13T12:16:47.300Z,6.00
2017-12-13T12:19:15.563Z,6.10
2017-12-13T12:21:43.907Z,6.10
2017-12-13T12:24:11.622Z,6.00
2017-12-13T12:26:39.142Z,6.20
2017-12-13T12:29:06.703Z,6.40
2017-12-13T12:31:34.198Z,6.40
2017-12-13T12:34:01.698Z,6.30
2017-12-13T12:36:29.241Z,6.20
2017-12-13T12:38:56.743Z,6.10
2017-12-13T12:41:24.234Z,6.00
2017-12-13T12:43:51.792Z,5.70
2017-12-13T12:46:19.304Z,5.60
2017-12-13T12:48:48.319Z,5.50
2017-12-13T12:51:23.571Z,5.30
2017-12-13T12:53:51.071Z,5.30
2017-12-13T12:56:18.568Z,5.40
2017-12-13T12:58:46.110Z,5.40
2017-12-13T13:01:13.603Z,5.40
2017-12-13T13:03:41.592Z,5.40
2017-12-13T13:06:09.138Z,5.40
2017-12-13T13:08:37.400Z,5.40
2017-12-13T13:11:04.894Z,5.40
2017-12-13T13:13:32.473Z,5.40
2017-12-13T13:15:59.970Z,5.40
2017-12-13T13:18:27.975Z,5.40
2017-12-13T13:20:56.057Z,5.40
2017-12-13T13:23:24.319Z,5.30
2017-12-13T13:25:51.820Z,5.30
2017-12-13T13:28:19.363Z,5.20
2017-12-13T13:30:46.901Z,5.20
2017-12-13T13:33:14.405Z,5.10
2017-12-13T13:35:41.965Z,5.10
2017-12-13T13:38:09.509Z,5.00
2017-12-13T13:40:37.015Z,5.00
2017-12-13T13:43:04.579Z,4.90
2017-12-13T13:45:32.455Z,5.00
2017-12-13T13:47:59.992Z,5.00
2017-12-13T13:50:27.547Z,5.00
2017-12-13T13:52:55.050Z,5.00
2017-12-13T13:55:22.608Z,5.10
2017-12-13T13:57:50.435Z,5.20
2017-12-13T14:00:18.106Z,5.20
2017-12-13T14:02:45.635Z,5.20
2017-12-13T14:05:13.759Z,5.30
2017-12-13T14:07:41.252Z,5.20
2017-12-13T14:10:08.813Z,5.10
2017-12-13T14:12:36.420Z,5.10
2017-12-13T14:15:03.965Z,5.20
2017-12-13T14:17:31.897Z,5.20
2017-12-13T14:19:59.451Z,5.20
2017-12-13T14:22:26.951Z,5.30
2017-12-13T14:24:54.508Z,5.30
2017-12-13T14:27:22.055Z,5.20
2017-12-13T14:29:49.604Z,5.20
2017-12-13T14:32:17.145Z,5.10
2017-12-13T14:34:45.305Z,5.10
2017-12-13T14:37:12.974Z,5.10
2017-12-13T14:39:40.475Z,5.10
2017-12-13T14:42:08.102Z,5.10
2017-12-13T14:44:35.603Z,5.00
2017-12-13T14:47:03.917Z,5.10
2017-12-13T14:49:31.466Z,5.10
2017-12-13T14:51:59.595Z,5.00
2017-12-13T14:54:27.137Z,5.00
2017-12-13T14:56:54.689Z,5.00
2017-12-13T14:59:22.799Z,5.00
2017-12-13T15:01:50.304Z,5.00
2017-12-13T15:04:18.369Z,5.00
2017-12-13T15:06:45.862Z,5.00
2017-12-13T15:09:13.367Z,5.00
2017-12-13T15:11:40.939Z,4.90
2017-12-13T15:14:08.477Z,4.90
2017-12-13T15:16:36.087Z,4.90
2017-12-13T15:19:03.802Z,4.90
2017-12-13T15:21:31.340Z,4.80
2017-12-13T15:23:58.892Z,4.80
2017-12-13T15:26:26.434Z,4.80
2017-12-13T15:28:53.939Z,4.70
2017-12-13T15:31:21.430Z,4.70
2017-12-13T15:33:49.005Z,4.70
2017-12-13T15:36:16.499Z,4.70
2017-12-13T15:38:43.996Z,4.60
2017-12-13T15:41:11.571Z,4.60
2017-12-13T15:43:39.078Z,4.50
2017-12-13T15:46:06.628Z,4.50
2017-12-13T15:48:34.944Z,4.60
2017-12-13T15:51:04.281Z,4.50
2017-12-13T15:53:31.781Z,4.50
2017-12-13T15:55:59.326Z,4.60
2017-12-13T15:58:26.827Z,4.50
2017-12-13T16:00:54.368Z,4.50
2017-12-13T16:03:21.914Z,4.50
2017-12-13T16:05:49.449Z,4.40
2017-12-13T16:08:16.951Z,4.40
2017-12-13T16:10:45.122Z,4.30
2017-12-13T16:13:12.681Z,4.20
2017-12-13T16:15:40.993Z,4.10
2017-12-13T16:18:09.454Z,4.10
2017-12-13T16:20:37.074Z,4.00
2017-12-13T16:23:04.575Z,3.90
2017-12-13T16:25:32.173Z,3.90
2017-12-13T16:28:00.195Z,3.90
2017-12-13T16:30:27.762Z,3.80
2017-12-13T16:32:55.677Z,3.90
2017-12-13T16:35:23.223Z,3.90
2017-12-13T16:37:50.762Z,3.90
2017-12-13T16:40:18.341Z,3.90
2017-12-13T16:42:45.846Z,3.80
2017-12-13T16:45:13.343Z,3.80
2017-12-13T16:47:40.937Z,3.80
2017-12-13T16:50:09.012Z,3.80
2017-12-13T16:52:36.515Z,3.80
2017-12-13T16:55:04.063Z,3.80
2017-12-13T16:57:31.604Z,3.90
2017-12-13T16:59:59.157Z,3.80
2017-12-13T17:02:26.776Z,3.90
2017-12-13T17:04:55.075Z,3.90
2017-12-13T17:07:22.570Z,3.90
2017-12-13T17:09:50.304Z,3.90
2017-12-13T17:12:17.856Z,4.00
2017-12-13T17:14:45.408Z,4.00
2017-12-13T17:17:12.993Z,4.00
2017-12-13T17:19:40.505Z,4.00
2017-12-13T17:22:08.054Z,4.00
2017-12-13T17:24:35.598Z,4.00
2017-12-13T17:27:04.065Z,4.10
2017-12-13T17:29:32.144Z,4.10
2017-12-13T17:31:59.870Z,4.10
2017-12-13T17:34:27.359Z,4.10
2017-12-13T17:36:56.068Z,4.10
2017-12-13T17:39:24.225Z,4.20
2017-12-13T17:41:51.778Z,4.20
2017-12-13T17:44:20.051Z,4.30
2017-12-13T17:46:47.602Z,4.30
2017-12-13T17:49:15.099Z,4.40
2017-12-13T17:51:43.157Z,4.40
2017-12-13T17:54:10.718Z,4.40
2017-12-13T17:56:39.034Z,4.30
2017-12-13T17:59:06.804Z,4.30
2017-12-13T18:01:34.479Z,4.40
2017-12-13T18:04:02.025Z,4.40
2017-12-13T18:06:29.636Z,4.40
2017-12-13T18:08:57.903Z,4.40
2017-12-13T18:11:25.445Z,4.40
2017-12-13T18:13:52.994Z,4.40
2017-12-13T18:16:20.533Z,4.40
2017-12-13T18:18:48.036Z,4.40
2017-12-13T18:21:15.590Z,4.40
2017-12-13T18:23:43.145Z,4.50
2017-12-13T18:26:11.077Z,4.60
2017-12-13T18:28:38.637Z,4.50
2017-12-13T18:31:06.178Z,4.60
2017-12-13T18:33:34.084Z,4.50
2017-12-13T18:36:01.584Z,4.60
2017-12-13T18:38:30.118Z,4.60
2017-12-13T18:58:02.675Z,27.00
2017-12-13T19:01:32.904Z,21.40
2017-12-13T19:09:29.525Z,16.30
2017-12-13T19:11:57.887Z,13.20
2017-12-13T19:14:26.230Z,10.70
2017-12-13T19:16:54.575Z,9.10
2017-12-13T19:19:23.146Z,7.50
2017-12-13T19:21:51.499Z,6.60
2017-12-13T19:24:19.907Z,5.90
2017-12-13T19:26:48.247Z,5.50
2017-12-13T19:29:16.585Z,5.30
2017-12-13T19:31:46.330Z,5.30
2017-12-13T19:34:15.441Z,5.30
2017-12-13T19:36:44.170Z,5.20
2017-12-13T19:39:12.971Z,5.20
2017-12-13T19:41:42.494Z,5.30
2017-12-13T19:44:10.888Z,5.30
2017-12-13T19:46:40.811Z,5.30
2017-12-13T19:49:09.331Z,5.30
2017-12-13T19:51:39.114Z,5.40
2017-12-13T19:54:08.336Z,5.30
2017-12-13T19:56:37.436Z,5.40
2017-12-13T19:59:06.008Z,5.40
2017-12-13T20:01:35.172Z,5.50
2017-12-13T20:04:04.180Z,5.40
2017-12-13T20:06:33.206Z,5.30
2017-12-13T20:09:01.558Z,5.30
2017-12-13T20:11:29.904Z,5.30
2017-12-13T20:13:59.262Z,5.50
2017-12-13T20:16:27.619Z,5.40
2017-12-13T20:18:55.918Z,5.40
2017-12-13T20:21:24.747Z,5.40
2017-12-13T20:23:52.990Z,5.40
2017-12-13T20:26:21.370Z,5.50
2017-12-13T20:28:49.765Z,5.50
2017-12-13T20:31:18.118Z,5.50
2017-12-13T20:33:46.835Z,5.50
2017-12-13T20:36:16.005Z,5.60
2017-12-13T20:38:44.350Z,5.60
2017-12-13T20:41:13.198Z,5.70
2017-12-13T20:43:41.560Z,5.70
2017-12-13T20:46:10.080Z,5.70
2017-12-13T20:48:39.241Z,5.60
2017-12-13T20:51:07.591Z,5.60
2017-12-13T20:53:35.888Z,5.70
2017-12-13T20:56:04.288Z,5.60
2017-12-13T20:58:32.635Z,5.50
2017-12-13T21:01:00.992Z,5.50
2017-12-13T21:03:29.868Z,5.50
2017-12-13T21:05:58.210Z,5.50
2017-12-13T21:08:26.555Z,5.50
2017-12-13T21:10:55.213Z,5.50
2017-12-13T21:13:23.574Z,5.50
2017-12-13T21:15:51.949Z,5.40
2017-12-13T21:18:20.315Z,5.40
2017-12-13T21:20:49.960Z,5.40
2017-12-13T21:23:19.051Z,5.30
2017-12-13T21:25:47.544Z,5.40
2017-12-13T21:28:16.624Z,5.50
2017-12-13T21:30:46.516Z,5.40
2017-12-13T21:33:14.894Z,5.50
2017-12-13T21:35:45.099Z,5.50
2017-12-13T21:38:14.432Z,5.50
2017-12-13T21:40:42.787Z,5.40
2017-12-13T21:43:11.183Z,5.40
2017-12-13T21:45:39.488Z,5.50
2017-12-13T21:48:07.834Z,5.50
2017-12-13T21:50:37.555Z,5.50
2017-12-13T21:53:06.376Z,5.50
2017-12-13T21:55:34.841Z,5.30
2017-12-13T21:58:03.642Z,5.30
2017-12-13T22:00:32.017Z,5.10
2017-12-13T22:03:01.237Z,5.10
2017-12-13T22:05:29.783Z,5.00
2017-12-13T22:08:00.497Z,4.90
2017-12-13T22:10:28.834Z,4.90
2017-12-13T22:12:58.013Z,4.90
2017-12-13T22:15:26.678Z,4.80
2017-12-13T22:17:55.137Z,4.90
2017-12-13T22:20:23.478Z,4.90
2017-12-13T22:22:51.911Z,4.90
2017-12-13T22:25:20.789Z,4.80
2017-12-13T22:27:49.127Z,4.90
2017-12-13T22:30:17.518Z,4.90
2017-12-13T22:32:45.866Z,4.90
2017-12-13T22:35:14.264Z,4.90
2017-12-13T22:37:42.677Z,4.90
2017-12-13T22:40:11.170Z,4.80
2017-12-13T22:42:39.481Z,4.90
2017-12-13T22:45:07.832Z,4.80
2017-12-13T22:47:36.129Z,4.90
2017-12-13T22:50:04.486Z,4.90
2017-12-13T22:52:33.506Z,4.80
2017-12-13T22:55:02.328Z,4.80
2017-12-13T22:57:30.680Z,4.80
2017-12-13T22:59:59.103Z,4.80
2017-12-13T23:02:27.446Z,4.70
2017-12-13T23:04:55.786Z,4.60
2017-12-13T23:07:24.829Z,4.50
2017-12-13T23:09:53.910Z,4.50
2017-12-13T23:12:22.263Z,4.40
2017-12-13T23:14:50.612Z,4.50
2017-12-13T23:17:19.709Z,4.60
2017-12-13T23:19:48.012Z,4.60
2017-12-13T23:22:16.364Z,4.60
2017-12-13T23:24:44.673Z,4.70
2017-12-13T23:27:12.983Z,4.80
2017-12-13T23:29:41.343Z,4.90
2017-12-13T23:32:09.647Z,4.90
2017-12-13T23:34:37.957Z,4.90
2017-12-13T23:37:06.328Z,4.90
2017-12-13T23:39:34.637Z,5.00
2017-12-13T23:42:02.932Z,5.00
2017-12-13T23:44:31.462Z,5.00
2017-12-13T23:46:59.762Z,5.00
2017-12-13T23:49:28.070Z,5.00
2017-12-13T23:51:56.424Z,5.10
2017-12-13T23:54:24.732Z,5.00
2017-12-13T23:56:54.558Z,5.00
2017-12-13T23:59:22.908Z,5.00
